Time;durP1;ratioP1;P1;durP2;ratioP2;P2;SDS_P1;SDS_P2;PMS_P1;PMS_P2;Temp;Humidity;BMP_temperature;BMP_pressure;BME280_temperature;BME280_humidity;BME280_pressure;Samples;Min_cycle;Max_cycle;Signal;HPM_P1;HPM_P2
2024/02/21 00:00:05;;;;;;;11.68;3.33;;;10.00;92.50;;;;;;5047971;28;20053;-50
2024/02/21 00:02:30;;;;;;;15.10;3.50;;;9.90;92.50;;;;;;5046423;28;20035;-50
2024/02/21 00:04:56;;;;;;;12.13;3.25;;;9.90;92.50;;;;;;5047755;28;20112;-50
2024/02/21 00:07:22;;;;;;;15.00;4.00;;;9.90;92.60;;;;;;5046474;28;20030;-50
2024/02/21 00:09:48;;;;;;;23.40;3.85;;;9.90;92.60;;;;;;5046476;28;20527;-50
2024/02/21 00:12:13;;;;;;;9.90;3.28;;;9.80;92.50;;;;;;5046461;28;20038;-50
2024/02/21 00:14:40;;;;;;;12.40;3.05;;;9.80;92.60;;;;;;5046317;28;20403;-50
2024/02/21 00:17:05;;;;;;;7.30;3.38;;;9.80;92.70;;;;;;5047683;28;20025;-50
2024/02/21 00:19:31;;;;;;;8.13;3.13;;;9.80;92.70;;;;;;5046671;28;20089;-50
2024/02/21 00:21:57;;;;;;;10.38;2.85;;;9.70;92.70;;;;;;5047586;28;20025;-50
2024/02/21 00:24:22;;;;;;;9.43;3.05;;;9.70;92.80;;;;;;5046280;28;20089;-50
2024/02/21 00:26:48;;;;;;;9.45;3.10;;;9.70;92.80;;;;;;5048127;28;20026;-50
2024/02/21 00:29:13;;;;;;;8.75;2.83;;;9.60;92.80;;;;;;5046327;28;20034;-50
2024/02/21 00:31:39;;;;;;;12.23;3.45;;;9.60;92.80;;;;;;5029414;28;20052;-50
2024/02/21 00:34:04;;;;;;;13.18;3.00;;;9.60;92.90;;;;;;5029368;28;20044;-50
2024/02/21 00:36:30;;;;;;;8.38;3.22;;;9.60;92.90;;;;;;5029276;28;20021;-50
2024/02/21 00:38:55;;;;;;;7.30;3.03;;;9.60;92.90;;;;;;5047202;28;20049;-50
2024/02/21 00:41:21;;;;;;;8.05;2.40;;;9.60;93.00;;;;;;5047223;28;20025;-50
2024/02/21 00:43:48;;;;;;;12.15;3.00;;;9.50;93.10;;;;;;5046980;28;20033;-50
2024/02/21 00:46:14;;;;;;;7.88;2.88;;;9.50;93.10;;;;;;5047211;28;20240;-49
2024/02/21 00:48:39;;;;;;;6.50;2.80;;;9.50;93.20;;;;;;5047137;28;20033;-50
2024/02/21 00:51:05;;;;;;;9.00;2.63;;;9.50;93.20;;;;;;5047020;28;20068;-49
2024/02/21 00:53:30;;;;;;;9.45;2.58;;;9.50;93.30;;;;;;5029246;28;20048;-49
2024/02/21 00:55:56;;;;;;;7.85;3.10;;;9.40;93.20;;;;;;5029232;28;20034;-50
2024/02/21 00:58:22;;;;;;;6.07;2.10;;;9.40;93.30;;;;;;5029171;28;20032;-49
2024/02/21 01:00:48;;;;;;;6.90;3.08;;;9.40;93.40;;;;;;5046913;28;20029;-50
2024/02/21 01:03:13;;;;;;;11.98;2.75;;;9.40;93.30;;;;;;5046891;28;20106;-50
2024/02/21 01:05:39;;;;;;;6.07;2.20;;;9.30;93.30;;;;;;5029236;28;20040;-50
2024/02/21 01:08:05;;;;;;;6.80;2.35;;;9.30;93.30;;;;;;5046922;28;20033;-50
2024/02/21 01:10:30;;;;;;;3.80;2.28;;;9.30;93.40;;;;;;5045773;28;20040;-50
2024/02/21 01:12:56;;;;;;;7.78;2.28;;;9.30;93.50;;;;;;5045984;28;20033;-50
2024/02/21 01:15:21;;;;;;;7.80;2.55;;;9.30;93.50;;;;;;5045516;28;20029;-50
2024/02/21 01:17:47;;;;;;;6.63;2.10;;;9.20;93.60;;;;;;5045378;28;20072;-50
2024/02/21 01:20:13;;;;;;;5.25;2.38;;;9.20;93.50;;;;;;5046575;28;20030;-50
2024/02/21 01:22:38;;;;;;;4.63;2.60;;;9.20;93.50;;;;;;5046554;28;20021;-50
2024/02/21 01:25:04;;;;;;;5.05;2.58;;;9.20;93.50;;;;;;5028890;28;20122;-50
2024/02/21 01:27:30;;;;;;;7.45;2.35;;;9.20;93.50;;;;;;5045236;28;20026;-50
2024/02/21 01:29:55;;;;;;;4.15;2.00;;;9.10;93.50;;;;;;5045162;28;20037;-50
2024/02/21 01:32:24;;;;;;;6.75;2.25;;;9.10;93.60;;;;;;5046351;28;20040;-50
2024/02/21 01:34:49;;;;;;;4.40;2.10;;;9.10;93.60;;;;;;5045389;28;20041;-50
2024/02/21 01:37:15;;;;;;;5.25;2.40;;;9.10;93.70;;;;;;5044998;28;20030;-50
2024/02/21 01:39:41;;;;;;;5.28;2.15;;;9.00;93.70;;;;;;5046358;28;20029;-49
2024/02/21 01:42:06;;;;;;;5.82;2.47;;;9.00;93.70;;;;;;5046314;28;20025;-49
2024/02/21 01:44:32;;;;;;;6.97;2.25;;;9.00;93.80;;;;;;5044854;28;20022;-49
2024/02/21 01:46:57;;;;;;;8.68;2.00;;;9.00;93.80;;;;;;5046213;28;20088;-50
2024/02/21 01:49:23;;;;;;;7.30;1.90;;;9.00;93.80;;;;;;5028747;28;20339;-50
2024/02/21 01:51:49;;;;;;;4.47;2.30;;;8.90;93.90;;;;;;5028324;28;20091;-49
2024/02/21 01:54:15;;;;;;;2.97;2.10;;;9.00;93.90;;;;;;5045051;28;20041;-50
2024/02/21 01:56:42;;;;;;;8.27;2.28;;;9.00;93.90;;;;;;5028635;28;20032;-49
2024/02/21 01:59:07;;;;;;;3.70;2.10;;;9.00;94.00;;;;;;5046187;28;20022;-49
2024/02/21 02:01:33;;;;;;;4.28;1.85;;;8.90;94.00;;;;;;5028404;28;20032;-50
2024/02/21 02:03:59;;;;;;;4.70;2.03;;;8.90;94.00;;;;;;5028557;28;20036;-50
2024/02/21 02:06:24;;;;;;;4.68;2.00;;;8.90;94.00;;;;;;5044762;28;20033;-50
2024/02/21 02:08:50;;;;;;;3.92;1.80;;;8.90;94.00;;;;;;5028984;28;20056;-50
2024/02/21 02:11:16;;;;;;;7.03;2.47;;;8.90;94.00;;;;;;5028492;28;20026;-49
2024/02/21 02:13:41;;;;;;;4.65;1.80;;;8.90;94.00;;;;;;5044800;28;20041;-50
2024/02/21 02:16:07;;;;;;;5.45;2.70;;;8.90;94.00;;;;;;5045868;28;20121;-49
2024/02/21 02:18:32;;;;;;;5.00;1.95;;;8.90;94.10;;;;;;5044671;28;20037;-49
2024/02/21 02:20:58;;;;;;;4.22;2.47;;;8.90;94.10;;;;;;5044809;28;20084;-49
2024/02/21 02:23:31;;;;;;;4.57;2.00;;;8.80;94.10;;;;;;5046009;28;20026;-50
2024/02/21 02:25:56;;;;;;;4.55;2.15;;;8.80;94.10;;;;;;5047447;28;20029;-50
2024/02/21 02:28:22;;;;;;;3.67;2.05;;;8.80;94.10;;;;;;5049810;28;20041;-49
2024/02/21 02:30:48;;;;;;;2.88;1.73;;;8.80;94.10;;;;;;5048308;28;20418;-49
2024/02/21 02:33:13;;;;;;;5.20;1.65;;;8.80;94.20;;;;;;5049698;28;20109;-49
2024/02/21 02:35:39;;;;;;;5.38;2.15;;;8.80;94.20;;;;;;5049398;28;20056;-49
2024/02/21 02:38:05;;;;;;;4.97;1.90;;;8.80;94.10;;;;;;5049450;28;20044;-50
2024/02/21 02:40:34;;;;;;;3.08;1.80;;;8.80;94.10;;;;;;5048384;28;20022;-49
2024/02/21 02:43:00;;;;;;;2.63;1.70;;;8.80;94.30;;;;;;5048198;28;20039;-50
2024/02/21 02:45:26;;;;;;;3.80;2.08;;;8.80;94.40;;;;;;5049431;28;20396;-50
2024/02/21 02:47:56;;;;;;;4.45;1.83;;;8.70;94.40;;;;;;5047974;28;20060;-50
2024/02/21 02:50:22;;;;;;;6.32;2.03;;;8.70;94.50;;;;;;5048142;28;20026;-50
2024/02/21 02:52:48;;;;;;;4.15;1.80;;;8.70;94.50;;;;;;5049338;28;20033;-50
2024/02/21 02:55:13;;;;;;;6.85;1.75;;;8.70;94.50;;;;;;5048143;28;20028;-50
2024/02/21 02:57:41;;;;;;;6.93;2.13;;;8.70;94.60;;;;;;5049285;28;20077;-50
2024/02/21 03:00:07;;;;;;;3.45;1.75;;;8.70;94.60;;;;;;5049057;28;20034;-50
2024/02/21 03:02:33;;;;;;;3.92;1.83;;;8.70;94.70;;;;;;5047773;28;20033;-50
2024/02/21 03:04:58;;;;;;;3.42;1.80;;;8.70;94.70;;;;;;5049252;28;20455;-50
2024/02/21 03:07:25;;;;;;;2.65;1.85;;;8.70;94.70;;;;;;5049150;28;20037;-50
2024/02/21 03:09:50;;;;;;;3.13;1.58;;;8.70;94.70;;;;;;5031499;28;20033;-50
2024/02/21 03:12:24;;;;;;;4.18;1.80;;;8.60;94.70;;;;;;5031195;28;20033;-49
2024/02/21 03:14:50;;;;;;;3.28;1.58;;;8.60;94.80;;;;;;5048921;28;20038;-50
2024/02/21 03:17:15;;;;;;;3.90;1.63;;;8.60;94.80;;;;;;5048730;28;20495;-50
2024/02/21 03:19:41;;;;;;;4.35;1.42;;;8.60;94.80;;;;;;5047542;28;20030;-50
2024/02/21 03:22:06;;;;;;;6.28;1.98;;;8.60;94.80;;;;;;5048714;28;20052;-50
2024/02/21 03:24:32;;;;;;;2.70;1.50;;;8.60;94.80;;;;;;5047344;28;20033;-50
2024/02/21 03:26:58;;;;;;;3.67;1.98;;;8.60;94.80;;;;;;5048730;28;20075;-49
2024/02/21 03:29:24;;;;;;;4.43;1.70;;;8.60;94.90;;;;;;5048765;28;20661;-50
2024/02/21 03:31:50;;;;;;;4.72;2.53;;;8.60;94.90;;;;;;5048622;28;20033;-49
2024/02/21 03:34:15;;;;;;;3.08;1.48;;;8.60;95.10;;;;;;5030692;28;20507;-50
2024/02/21 03:36:41;;;;;;;5.43;1.60;;;8.60;94.90;;;;;;5046691;28;20472;-50
2024/02/21 03:39:09;;;;;;;3.40;1.55;;;8.60;95.00;;;;;;5047173;28;20495;-50
2024/02/21 03:41:34;;;;;;;4.72;1.73;;;8.60;95.00;;;;;;5030775;28;20160;-50
2024/02/21 03:44:00;;;;;;;4.22;1.63;;;8.50;95.00;;;;;;5030656;28;20034;-50
2024/02/21 03:46:26;;;;;;;4.43;1.92;;;8.50;95.00;;;;;;5047213;28;20034;-50
2024/02/21 03:48:51;;;;;;;2.97;1.77;;;8.50;95.10;;;;;;5030533;28;20029;-50
2024/02/21 03:51:17;;;;;;;4.53;1.83;;;8.50;95.10;;;;;;5047445;28;20040;-49
2024/02/21 03:53:43;;;;;;;5.88;2.05;;;8.50;95.20;;;;;;5047091;28;20039;-50
2024/02/21 03:56:08;;;;;;;3.05;1.60;;;8.50;95.20;;;;;;5030374;28;20495;-50
2024/02/21 03:58:34;;;;;;;5.05;2.10;;;8.50;95.20;;;;;;5030235;28;20051;-50
2024/02/21 04:01:03;;;;;;;2.88;1.65;;;8.50;95.20;;;;;;5030314;28;20030;-49
2024/02/21 04:03:29;;;;;;;2.85;1.50;;;8.10;95.10;;;;;;5048117;28;20029;-49
2024/02/21 04:05:54;;;;;;;3.60;1.50;;;8.50;95.30;;;;;;5046773;28;20124;-49
2024/02/21 04:08:20;;;;;;;2.95;1.75;;;8.50;95.30;;;;;;5030261;28;20361;-49
2024/02/21 04:10:45;;;;;;;3.25;1.75;;;8.50;95.30;;;;;;5047852;28;20044;-50
2024/02/21 04:13:11;;;;;;;5.32;1.95;;;8.50;95.30;;;;;;5046635;28;20495;-50
2024/02/21 04:15:36;;;;;;;2.40;1.40;;;8.50;95.40;;;;;;5046478;28;20476;-49
2024/02/21 04:18:03;;;;;;;3.00;1.73;;;8.40;95.30;;;;;;5030078;28;20029;-49
2024/02/21 04:20:28;;;;;;;3.92;1.52;;;8.40;95.40;;;;;;5046571;28;20037;-50
2024/02/21 04:22:54;;;;;;;4.15;1.65;;;8.40;95.40;;;;;;5013609;28;20105;-49
2024/02/21 04:25:20;;;;;;;3.35;2.10;;;8.40;95.40;;;;;;5047493;28;20120;-50
2024/02/21 04:27:46;;;;;;;2.22;1.50;;;8.40;95.40;;;;;;5046450;28;20028;-49
2024/02/21 04:30:11;;;;;;;3.50;1.48;;;8.40;95.40;;;;;;5047647;28;20063;-50
2024/02/21 04:32:37;;;;;;;3.10;1.48;;;8.40;95.40;;;;;;5046386;28;20032;-49
2024/02/21 04:35:03;;;;;;;2.13;1.38;;;8.40;95.40;;;;;;5029780;28;20056;-50
2024/02/21 04:37:29;;;;;;;2.33;1.45;;;8.40;95.40;;;;;;5047345;28;20025;-50
2024/02/21 04:39:54;;;;;;;4.82;1.38;;;8.40;95.40;;;;;;5029284;28;20025;-49
2024/02/21 04:42:20;;;;;;;2.13;1.40;;;8.30;95.40;;;;;;5046121;28;20105;-49
2024/02/21 04:44:45;;;;;;;3.47;1.63;;;8.30;95.40;;;;;;5029591;28;20029;-50
2024/02/21 04:47:11;;;;;;;2.38;1.40;;;8.30;95.50;;;;;;5046476;28;20108;-49
2024/02/21 04:49:36;;;;;;;2.25;1.30;;;8.30;95.60;;;;;;5045880;28;20076;-50
2024/02/21 04:52:02;;;;;;;4.43;1.45;;;8.30;95.50;;;;;;5047291;28;20025;-50
2024/02/21 04:54:27;;;;;;;2.95;1.50;;;8.30;95.60;;;;;;5045741;28;20033;-49
2024/02/21 04:56:53;;;;;;;1.40;1.25;;;8.30;95.70;;;;;;5045744;28;20052;-49
2024/02/21 04:59:18;;;;;;;2.65;1.48;;;8.30;95.70;;;;;;5046840;28;20026;-49
2024/02/21 05:01:44;;;;;;;4.63;1.60;;;8.30;95.70;;;;;;5046893;28;20104;-49
2024/02/21 05:04:09;;;;;;;3.00;1.60;;;8.20;95.70;;;;;;5046597;28;20051;-50
2024/02/21 05:06:39;;;;;;;3.00;1.60;;;8.30;95.70;;;;;;5029092;28;20029;-50
2024/02/21 05:09:05;;;;;;;3.55;1.40;;;8.30;95.70;;;;;;5012721;28;20131;-50
2024/02/21 05:11:31;;;;;;;2.70;1.58;;;8.30;95.60;;;;;;5046664;28;20104;-49
2024/02/21 05:13:56;;;;;;;2.38;1.33;;;8.30;95.60;;;;;;5045523;28;20029;-50
2024/02/21 05:16:22;;;;;;;4.13;1.55;;;8.30;95.70;;;;;;5045348;28;20030;-50
2024/02/21 05:18:47;;;;;;;2.92;1.50;;;8.30;95.70;;;;;;5029032;28;20033;-49
2024/02/21 05:21:13;;;;;;;4.05;1.70;;;8.30;95.60;;;;;;5046407;28;20026;-49
2024/02/21 05:23:39;;;;;;;4.32;1.60;;;8.30;95.70;;;;;;5045434;28;20033;-49
2024/02/21 05:26:05;;;;;;;3.00;1.23;;;8.30;95.80;;;;;;5046412;28;20029;-49
2024/02/21 05:28:31;;;;;;;3.42;1.40;;;8.30;95.80;;;;;;5028823;28;20025;-50
2024/02/21 05:30:56;;;;;;;3.92;1.70;;;8.30;95.80;;;;;;5045496;28;20029;-49
2024/02/21 05:33:22;;;;;;;4.97;1.73;;;8.20;95.80;;;;;;5044051;28;20361;-50
2024/02/21 05:35:50;;;;;;;8.20;1.60;;;8.30;95.90;;;;;;5045269;28;20122;-49
2024/02/21 05:38:16;;;;;;;7.22;1.67;;;8.30;96.00;;;;;;5045036;28;20056;-50
2024/02/21 05:40:42;;;;;;;3.58;1.50;;;8.20;96.00;;;;;;5045270;28;20025;-49
2024/02/21 05:43:08;;;;;;;2.72;1.40;;;8.20;96.00;;;;;;5045080;28;20513;-50
2024/02/21 05:45:34;;;;;;;5.53;1.77;;;8.30;96.10;;;;;;5045101;28;20029;-49
2024/02/21 05:48:00;;;;;;;6.50;1.77;;;8.20;96.10;;;;;;5028488;28;20030;-50
2024/02/21 05:50:26;;;;;;;4.50;1.60;;;8.20;96.10;;;;;;5044938;28;20089;-50
2024/02/21 05:52:55;;;;;;;5.38;1.83;;;8.20;96.10;;;;;;5046388;28;20040;-50
2024/02/21 05:55:21;;;;;;;7.53;2.85;;;8.20;96.10;;;;;;5046071;28;20089;-50
2024/02/21 05:57:47;;;;;;;11.63;3.05;;;8.20;96.10;;;;;;5012182;28;20022;-49
2024/02/21 06:00:13;;;;;;;14.23;3.63;;;8.20;96.20;;;;;;5048160;28;20077;-49
2024/02/21 06:02:39;;;;;;;12.35;3.42;;;8.20;96.20;;;;;;5048687;28;20461;-50
2024/02/21 06:05:07;;;;;;;11.30;3.20;;;8.10;96.20;;;;;;5050110;28;20514;-50
2024/02/21 06:07:33;;;;;;;17.20;3.85;;;8.20;96.20;;;;;;5032600;28;20089;-49
2024/02/21 06:09:58;;;;;;;19.55;3.60;;;8.20;96.30;;;;;;5049953;28;20365;-49
2024/02/21 06:12:24;;;;;;;14.88;3.40;;;8.20;96.30;;;;;;5048692;28;20043;-50
2024/02/21 06:14:49;;;;;;;15.38;4.30;;;8.20;96.30;;;;;;5049879;28;20044;-49
2024/02/21 06:17:15;;;;;;;17.92;3.95;;;8.20;96.40;;;;;;5031796;28;20033;-50
2024/02/21 06:19:42;;;;;;;22.63;3.78;;;8.20;96.50;;;;;;5048742;28;20056;-50
2024/02/21 06:22:08;;;;;;;18.50;3.40;;;8.20;96.50;;;;;;5032394;28;20464;-49
2024/02/21 06:24:35;;;;;;;22.85;4.60;;;8.20;96.50;;;;;;5048547;28;20112;-49
2024/02/21 06:27:00;;;;;;;22.05;5.47;;;8.20;96.50;;;;;;5048436;28;20037;-49
2024/02/21 06:29:26;;;;;;;29.42;4.68;;;8.20;96.50;;;;;;5048471;28;20031;-49
2024/02/21 06:31:51;;;;;;;57.78;6.93;;;8.20;96.50;;;;;;5048234;28;20516;-49
2024/02/21 06:34:17;;;;;;;60.45;7.90;;;8.20;96.60;;;;;;5031793;28;20056;-49
2024/02/21 06:36:44;;;;;;;51.85;7.28;;;8.20;96.60;;;;;;5047971;28;20029;-50
2024/02/21 06:39:11;;;;;;;40.08;6.32;;;8.20;96.60;;;;;;5049373;28;20049;-49
2024/02/21 06:41:37;;;;;;;46.17;7.38;;;8.20;96.60;;;;;;5048213;28;20030;-50
2024/02/21 06:44:02;;;;;;;63.33;6.95;;;8.20;96.70;;;;;;5049845;28;20083;-50
2024/02/21 06:46:28;;;;;;;36.55;6.78;;;8.20;96.60;;;;;;5049631;28;20017;-49
2024/02/21 06:48:56;;;;;;;36.17;7.25;;;8.20;96.80;;;;;;5048214;28;20035;-50
2024/02/21 06:51:22;;;;;;;35.83;6.57;;;8.20;96.90;;;;;;5048042;28;20032;-49
2024/02/21 06:53:47;;;;;;;32.50;6.30;;;8.20;97.00;;;;;;5048981;28;20038;-50
2024/02/21 06:56:13;;;;;;;21.98;5.85;;;8.20;97.10;;;;;;5047785;28;20049;-50
2024/02/21 06:58:38;;;;;;;39.65;6.53;;;8.20;97.10;;;;;;5047887;28;20025;-50
2024/02/21 07:01:04;;;;;;;39.63;6.00;;;8.20;97.00;;;;;;5048017;28;20053;-50
2024/02/21 07:03:30;;;;;;;41.90;6.50;;;8.20;97.00;;;;;;5047225;28;20021;-49
2024/02/21 07:05:55;;;;;;;28.85;5.97;;;8.20;96.90;;;;;;5047677;28;20025;-50
2024/02/21 07:08:21;;;;;;;31.20;4.95;;;8.10;96.90;;;;;;5049188;28;20034;-50
2024/02/21 07:10:47;;;;;;;42.95;5.88;;;8.10;97.00;;;;;;5047201;28;20036;-49
2024/02/21 07:13:13;;;;;;;29.05;5.97;;;8.10;97.00;;;;;;5047778;28;20030;-49
2024/02/21 07:15:38;;;;;;;22.98;5.07;;;8.10;97.00;;;;;;5048615;28;20034;-50
2024/02/21 07:18:04;;;;;;;23.08;5.15;;;8.10;97.00;;;;;;5048919;28;20171;-49
2024/02/21 07:20:30;;;;;;;24.85;5.18;;;8.10;97.00;;;;;;5047375;28;20025;-49
2024/02/21 07:22:55;;;;;;;21.55;4.85;;;8.10;97.00;;;;;;5030820;28;20546;-50
2024/02/21 07:25:21;;;;;;;21.80;4.15;;;8.10;97.00;;;;;;5048617;28;20029;-49
2024/02/21 07:27:46;;;;;;;19.05;4.38;;;8.10;97.00;;;;;;5047380;28;20033;-49
2024/02/21 07:30:12;;;;;;;17.85;4.05;;;8.10;97.00;;;;;;5046896;28;20092;-49
2024/02/21 07:32:38;;;;;;;31.05;4.53;;;8.20;96.90;;;;;;5047312;28;20033;-49
2024/02/21 07:35:05;;;;;;;20.77;4.22;;;8.20;96.90;;;;;;5047173;28;20036;-50
2024/02/21 07:37:31;;;;;;;25.77;4.57;;;8.20;96.90;;;;;;5046971;28;20091;-49
2024/02/21 07:39:56;;;;;;;27.48;4.68;;;8.20;96.90;;;;;;5046683;28;20037;-49
2024/02/21 07:42:22;;;;;;;19.25;4.68;;;8.20;96.80;;;;;;5080313;28;20025;-50
2024/02/21 07:44:47;;;;;;;19.13;4.53;;;8.20;96.80;;;;;;5047153;28;20029;-50
2024/02/21 07:47:13;;;;;;;24.02;4.05;;;8.20;96.80;;;;;;5046859;28;20113;-49
2024/02/21 07:49:46;;;;;;;16.23;4.10;;;8.20;96.80;;;;;;5046416;28;20034;-50
2024/02/21 07:52:11;;;;;;;16.30;3.90;;;8.20;96.80;;;;;;5029806;28;20120;-50
2024/02/21 07:54:37;;;;;;;15.02;3.70;;;8.20;96.70;;;;;;5030482;28;20029;-49
2024/02/21 07:57:02;;;;;;;15.40;4.05;;;8.20;96.70;;;;;;5030206;28;20037;-50
2024/02/21 07:59:29;;;;;;;11.68;3.42;;;8.20;96.70;;;;;;5029899;28;20028;-50
2024/02/21 08:01:58;;;;;;;18.65;3.58;;;8.20;96.70;;;;;;5047807;28;20089;-50
2024/02/21 08:04:23;;;;;;;12.63;3.08;;;8.20;96.70;;;;;;5046601;28;20021;-50
2024/02/21 08:06:55;;;;;;;11.02;3.42;;;8.20;96.70;;;;;;5047578;28;20422;-50
2024/02/21 08:09:22;;;;;;;8.32;3.20;;;8.20;96.60;;;;;;5047865;28;20085;-50
2024/02/21 08:11:48;;;;;;;12.45;3.13;;;8.20;96.60;;;;;;5013741;28;20032;-49
2024/02/21 08:14:15;;;;;;;15.15;3.53;;;8.20;96.60;;;;;;5045994;28;20121;-49
2024/02/21 08:16:42;;;;;;;9.32;3.42;;;8.30;96.60;;;;;;5046129;28;20052;-49
2024/02/21 08:19:07;;;;;;;9.82;3.35;;;8.20;96.60;;;;;;5029804;28;20021;-50
2024/02/21 08:21:33;;;;;;;19.40;4.03;;;8.30;96.60;;;;;;5029517;28;20075;-49
2024/02/21 08:23:58;;;;;;;9.65;3.40;;;8.30;96.60;;;;;;5046038;28;20033;-50
2024/02/21 08:26:27;;;;;;;8.65;3.13;;;8.30;96.60;;;;;;5047277;28;20030;-49
2024/02/21 08:28:53;;;;;;;19.48;5.20;;;8.30;96.60;;;;;;5046199;28;20021;-49
2024/02/21 08:31:19;;;;;;;21.55;4.07;;;8.30;96.60;;;;;;5029228;28;20109;-49
2024/02/21 08:33:45;;;;;;;18.50;4.28;;;8.30;96.60;;;;;;5029520;28;20041;-50
2024/02/21 08:36:18;;;;;;;35.50;4.18;;;8.30;96.60;;;;;;5046775;28;20061;-49
2024/02/21 08:38:44;;;;;;;28.80;4.55;;;8.30;96.60;;;;;;5030248;28;20107;-50
2024/02/21 08:41:09;;;;;;;20.40;5.28;;;8.40;96.60;;;;;;5045659;28;20026;-50
2024/02/21 08:43:35;;;;;;;22.45;5.03;;;8.40;96.60;;;;;;5045745;28;20478;-50
2024/02/21 08:46:01;;;;;;;27.40;4.45;;;8.40;96.70;;;;;;5045276;28;20037;-50
2024/02/21 08:48:26;;;;;;;27.30;5.32;;;8.40;96.70;;;;;;5011440;28;20033;-50
2024/02/21 08:50:54;;;;;;;31.27;4.85;;;8.40;96.70;;;;;;5045783;28;20372;-50
2024/02/21 08:53:19;;;;;;;29.88;5.40;;;8.40;96.80;;;;;;5045723;28;20108;-50
2024/02/21 08:55:45;;;;;;;31.58;5.57;;;8.50;96.80;;;;;;5046597;28;20040;-50
2024/02/21 08:58:11;;;;;;;28.92;5.13;;;8.50;97.00;;;;;;5046710;28;20029;-50
2024/02/21 09:00:37;;;;;;;37.92;6.20;;;8.50;97.00;;;;;;5046654;28;20032;-50
2024/02/21 09:03:03;;;;;;;38.30;6.15;;;8.50;96.80;;;;;;5029070;28;20022;-49
2024/02/21 09:05:29;;;;;;;103.10;11.70;;;8.50;96.80;;;;;;5044789;28;20060;-50
2024/02/21 09:07:54;;;;;;;41.63;6.63;;;8.60;96.70;;;;;;5045113;28;20030;-50
2024/02/21 09:10:20;;;;;;;42.47;7.13;;;8.60;96.80;;;;;;5046007;28;20029;-50
2024/02/21 09:12:47;;;;;;;42.83;6.10;;;8.60;96.70;;;;;;5045136;28;20029;-50
2024/02/21 09:15:13;;;;;;;54.47;7.28;;;8.60;96.70;;;;;;5045456;28;20030;-49
2024/02/21 09:17:39;;;;;;;46.35;6.15;;;8.60;96.70;;;;;;5045089;28;20547;-50
2024/02/21 09:20:06;;;;;;;49.22;7.75;;;8.70;96.80;;;;;;5046280;28;20445;-50
2024/02/21 09:22:34;;;;;;;57.50;7.72;;;8.70;96.80;;;;;;5046389;28;20044;-50
2024/02/21 09:25:00;;;;;;;174.52;20.30;;;8.70;96.80;;;;;;5045351;28;20021;-50
2024/02/21 09:27:25;;;;;;;79.50;10.40;;;8.70;97.00;;;;;;5045696;28;20040;-50
2024/02/21 09:29:51;;;;;;;86.22;10.13;;;8.80;96.70;;;;;;5045639;28;20041;-49
2024/02/21 09:32:18;;;;;;;98.20;11.02;;;8.80;96.70;;;;;;5046304;28;20029;-50
2024/02/21 09:34:44;;;;;;;80.10;8.85;;;8.90;96.60;;;;;;5028528;28;20033;-50
2024/02/21 09:37:10;;;;;;;75.07;10.60;;;8.90;96.50;;;;;;5044553;28;20037;-50
2024/02/21 09:39:36;;;;;;;76.45;11.30;;;8.90;96.50;;;;;;5046090;28;20033;-50
2024/02/21 09:42:05;;;;;;;104.03;14.00;;;9.00;96.60;;;;;;5045457;28;20112;-50
2024/02/21 09:44:36;;;;;;;97.85;9.18;;;9.00;96.80;;;;;;5028774;28;20048;-50
2024/02/21 09:47:07;;;;;;;77.40;9.70;;;9.10;96.40;;;;;;5042837;28;20025;-50
2024/02/21 09:49:33;;;;;;;90.13;11.77;;;9.10;96.30;;;;;;5043048;28;20036;-50
2024/02/21 09:52:03;;;;;;;110.03;13.48;;;9.10;96.30;;;;;;5044750;28;20100;-51
2024/02/21 09:54:31;;;;;;;127.25;13.05;;;9.10;96.30;;;;;;5028667;28;20017;-50
2024/02/21 09:56:56;;;;;;;76.05;11.48;;;9.20;96.30;;;;;;5042964;28;20101;-50
2024/02/21 09:59:22;;;;;;;83.25;9.95;;;9.20;96.40;;;;;;5027925;28;20017;-50
2024/02/21 10:01:47;;;;;;;178.55;19.25;;;9.20;96.20;;;;;;5047883;28;20033;-50
2024/02/21 10:04:13;;;;;;;409.27;37.13;;;9.30;96.20;;;;;;5044751;28;20022;-50
2024/02/21 10:06:39;;;;;;;129.98;15.23;;;9.30;96.20;;;;;;5037107;28;20043;-50
2024/02/21 10:09:06;;;;;;;93.97;12.30;;;9.30;96.20;;;;;;5044399;28;20045;-50
2024/02/21 10:11:34;;;;;;;187.93;19.05;;;9.40;96.10;;;;;;5028208;28;20022;-50
2024/02/21 10:14:06;;;;;;;83.57;11.40;;;9.40;96.00;;;;;;5047029;28;20040;-50
2024/02/21 10:16:33;;;;;;;70.53;10.15;;;9.50;96.00;;;;;;5046354;28;20079;-50
2024/02/21 10:18:58;;;;;;;120.03;14.82;;;9.50;95.90;;;;;;5043351;28;20477;-49
2024/02/21 10:21:24;;;;;;;134.38;13.32;;;9.50;96.00;;;;;;5028044;28;20032;-50
2024/02/21 10:23:50;;;;;;;70.60;9.55;;;9.60;96.00;;;;;;5044442;28;20029;-50
2024/02/21 10:26:19;;;;;;;71.40;9.80;;;9.60;95.80;;;;;;5045804;28;20025;-50
2024/02/21 10:28:45;;;;;;;68.50;10.38;;;9.60;95.70;;;;;;5044644;28;20089;-50
2024/02/21 10:31:11;;;;;;;76.97;9.90;;;9.60;95.70;;;;;;5044394;28;20055;-49
2024/02/21 10:33:37;;;;;;;89.63;8.68;;;9.60;95.70;;;;;;5045711;28;20079;-50
2024/02/21 10:36:15;;;;;;;57.92;8.15;;;9.60;95.70;;;;;;5027639;28;20129;-50
2024/02/21 10:38:41;;;;;;;78.30;9.15;;;9.70;95.60;;;;;;5041322;28;20049;-50
2024/02/21 10:41:06;;;;;;;79.18;9.07;;;9.70;95.60;;;;;;5027679;28;20041;-50
2024/02/21 10:43:40;;;;;;;126.70;12.65;;;9.70;95.50;;;;;;5044274;28;20534;-49
2024/02/21 10:46:07;;;;;;;94.50;11.30;;;9.80;95.60;;;;;;5046564;28;20040;-50
2024/02/21 10:48:38;;;;;;;71.75;8.93;;;9.80;95.50;;;;;;5047501;28;20052;-50
2024/02/21 10:51:19;;;;;;;67.22;9.35;;;9.80;95.40;;;;;;5031854;28;20030;-50
2024/02/21 10:53:58;;;;;;;64.97;8.23;;;9.90;95.30;;;;;;5033188;28;20042;-50
2024/02/21 10:56:36;;;;;;;99.82;11.45;;;9.90;95.30;;;;;;5047466;28;20167;-50
2024/02/21 10:59:03;;;;;;;116.05;11.52;;;10.00;95.10;;;;;;5047831;28;20040;-49
2024/02/21 11:01:31;;;;;;;125.32;12.30;;;10.00;95.00;;;;;;5031018;28;20028;-50
2024/02/21 11:03:58;;;;;;;91.43;11.60;;;10.00;95.10;;;;;;5047634;28;20030;-50
2024/02/21 11:06:23;;;;;;;97.47;10.25;;;10.10;95.20;;;;;;5047118;28;20030;-49
2024/02/21 11:09:05;;;;;;;125.65;15.05;;;10.10;95.20;;;;;;5030783;28;20057;-49
2024/02/21 11:11:40;;;;;;;92.78;9.85;;;10.20;95.30;;;;;;5048443;28;20033;-49
2024/02/21 11:14:10;;;;;;;63.55;8.13;;;10.20;95.10;;;;;;5014491;28;20045;-51
2024/02/21 11:16:38;;;;;;;57.45;7.90;;;10.20;94.80;;;;;;5047064;28;20029;-49
2024/02/21 11:19:05;;;;;;;46.83;6.50;;;10.20;94.70;;;;;;5047294;28;20083;-49
2024/02/21 11:21:35;;;;;;;58.30;7.00;;;10.30;94.50;;;;;;5047120;28;20439;-49
2024/02/21 11:24:02;;;;;;;44.42;6.90;;;10.30;94.30;;;;;;5047406;28;20026;-49
2024/02/21 11:26:28;;;;;;;42.45;7.75;;;10.30;94.30;;;;;;5047025;28;20369;-49
2024/02/21 11:29:04;;;;;;;62.65;8.63;;;10.40;94.10;;;;;;5047148;28;20026;-49
2024/02/21 11:31:56;;;;;;;37.80;5.95;;;10.40;94.10;;;;;;5048168;28;20079;-49
2024/02/21 11:34:21;;;;;;;35.05;5.78;;;10.50;94.00;;;;;;5030909;28;20048;-49
2024/02/21 11:36:52;;;;;;;20.40;4.00;;;10.50;93.70;;;;;;5046713;28;20033;-49
2024/02/21 11:39:20;;;;;;;29.58;5.05;;;10.50;93.40;;;;;;5030413;28;20030;-49
2024/02/21 11:42:07;;;;;;;22.88;4.20;;;10.50;93.40;;;;;;5047839;28;20030;-49
2024/02/21 11:44:34;;;;;;;39.50;5.95;;;10.60;93.40;;;;;;5032774;28;20029;-49
2024/02/21 11:46:59;;;;;;;37.60;5.50;;;10.60;93.50;;;;;;5030317;28;20039;-49
2024/02/21 11:49:26;;;;;;;28.48;4.57;;;10.60;93.50;;;;;;5046791;28;20057;-49
2024/02/21 11:52:00;;;;;;;42.03;4.68;;;10.70;93.30;;;;;;5048079;28;20029;-49
2024/02/21 11:54:26;;;;;;;25.58;4.93;;;10.70;93.10;;;;;;5048164;28;20068;-49
2024/02/21 11:56:51;;;;;;;44.10;6.00;;;10.70;93.10;;;;;;5046155;28;20025;-49
2024/02/21 11:59:17;;;;;;;27.30;3.78;;;10.80;93.00;;;;;;5046540;28;20031;-49
2024/02/21 12:01:42;;;;;;;16.65;4.10;;;10.80;92.90;;;;;;5047610;28;20025;-49
2024/02/21 12:04:08;;;;;;;36.45;5.18;;;10.80;92.70;;;;;;5046409;28;20033;-49
2024/02/21 12:06:34;;;;;;;43.13;5.70;;;10.90;92.70;;;;;;5030031;28;20033;-49
2024/02/21 12:08:59;;;;;;;32.28;5.07;;;10.90;92.70;;;;;;5046480;28;20045;-49
2024/02/21 12:11:25;;;;;;;54.63;6.90;;;10.90;92.70;;;;;;5046306;28;20036;-49
2024/02/21 12:14:05;;;;;;;61.83;7.28;;;11.00;92.80;;;;;;5047430;28;20080;-49
2024/02/21 12:16:31;;;;;;;73.82;8.98;;;11.00;92.80;;;;;;5014010;28;20025;-49
2024/02/21 12:18:57;;;;;;;73.25;9.52;;;11.00;93.20;;;;;;5029517;28;20025;-49
2024/02/21 12:21:41;;;;;;;53.65;6.47;;;11.10;93.10;;;;;;5045796;28;20021;-49
2024/02/21 12:24:21;;;;;;;57.22;6.35;;;11.20;93.00;;;;;;5029677;28;20081;-49
2024/02/21 12:26:46;;;;;;;18.35;4.03;;;11.20;92.70;;;;;;5013416;28;20393;-49
2024/02/21 12:29:12;;;;;;;23.67;3.80;;;11.20;92.70;;;;;;5045813;28;20049;-49
2024/02/21 12:31:38;;;;;;;29.33;4.70;;;11.20;92.30;;;;;;5045602;28;20488;-49
2024/02/21 12:34:04;;;;;;;25.35;4.25;;;11.30;92.30;;;;;;5045788;28;20092;-49
2024/02/21 12:36:30;;;;;;;29.33;4.47;;;11.30;92.20;;;;;;5012560;28;20033;-49
2024/02/21 12:38:56;;;;;;;22.42;3.65;;;11.30;92.00;;;;;;5046109;28;20458;-49
2024/02/21 12:41:21;;;;;;;23.88;3.28;;;11.40;91.90;;;;;;5012780;28;20112;-49
2024/02/21 12:43:47;;;;;;;20.42;3.60;;;11.40;91.80;;;;;;5044959;28;20021;-49